createdAt,value
2018-05-24T00:00:33.217Z,16.80
2018-05-24T00:03:00.738Z,16.80
2018-05-24T00:05:28.221Z,16.80
2018-05-24T00:07:55.814Z,16.80
2018-05-24T00:10:24.130Z,16.80
2018-05-24T00:12:51.646Z,16.70
2018-05-24T00:15:19.926Z,16.70
2018-05-24T00:17:47.448Z,16.70
2018-05-24T00:20:14.937Z,16.60
2018-05-24T00:22:42.470Z,16.60
2018-05-24T00:25:10.059Z,16.60
2018-05-24T00:27:37.578Z,16.60
2018-05-24T00:30:05.069Z,16.60
2018-05-24T00:32:32.593Z,16.60
2018-05-24T00:35:00.082Z,16.50
2018-05-24T00:37:27.591Z,16.50
2018-05-24T00:39:55.846Z,16.40
2018-05-24T00:42:23.363Z,16.40
2018-05-24T00:44:51.627Z,16.40
2018-05-24T00:47:19.373Z,16.40
2018-05-24T00:49:47.653Z,16.40
2018-05-24T00:52:16.750Z,16.40
2018-05-24T00:54:44.318Z,16.40
2018-05-24T00:57:12.757Z,16.40
2018-05-24T00:59:40.346Z,16.30
2018-05-24T01:02:07.866Z,16.40
2018-05-24T01:04:35.412Z,16.40
2018-05-24T01:07:02.909Z,16.40
2018-05-24T01:09:30.486Z,16.40
2018-05-24T01:11:57.985Z,16.40
2018-05-24T01:14:26.266Z,16.30
2018-05-24T01:16:53.746Z,16.30
2018-05-24T01:19:21.259Z,16.20
2018-05-24T01:21:48.742Z,16.20
2018-05-24T01:24:17.022Z,16.30
2018-05-24T01:26:44.515Z,16.30
2018-05-24T01:29:12.903Z,16.40
2018-05-24T01:31:40.391Z,16.30
2018-05-24T01:34:07.906Z,16.30
2018-05-24T01:36:48.222Z,16.20
2018-05-24T01:39:15.738Z,16.10
2018-05-24T01:41:43.321Z,16.10
2018-05-24T01:44:10.858Z,16.10
2018-05-24T01:46:38.497Z,16.10
2018-05-24T01:49:06.082Z,16.10
2018-05-24T01:51:33.579Z,16.00
2018-05-24T01:54:01.094Z,16.00
2018-05-24T01:56:28.638Z,16.00
2018-05-24T01:58:56.942Z,16.10
2018-05-24T02:01:24.518Z,16.00
2018-05-24T02:03:53.670Z,16.10
2018-05-24T02:06:21.931Z,16.10
2018-05-24T02:08:49.444Z,16.10
2018-05-24T02:11:17.734Z,16.00
2018-05-24T02:13:46.764Z,16.00
2018-05-24T02:16:15.026Z,15.90
2018-05-24T02:18:42.534Z,15.90
2018-05-24T02:21:10.047Z,15.90
2018-05-24T02:23:38.355Z,15.90
2018-05-24T02:26:05.898Z,15.90
2018-05-24T02:28:33.394Z,15.90
2018-05-24T02:31:00.922Z,15.90
2018-05-24T02:33:28.422Z,15.90
2018-05-24T02:35:56.109Z,15.90
2018-05-24T02:38:24.209Z,15.70
2018-05-24T02:40:51.723Z,15.70
2018-05-24T02:43:19.318Z,15.70
2018-05-24T02:45:46.898Z,15.70
2018-05-24T02:48:14.574Z,15.60
2018-05-24T02:50:42.171Z,15.60
2018-05-24T02:53:09.667Z,15.60
2018-05-24T02:55:37.952Z,15.60
2018-05-24T02:58:05.450Z,15.50
2018-05-24T03:00:33.730Z,15.50
2018-05-24T03:03:01.359Z,15.40
2018-05-24T03:05:28.880Z,15.40
2018-05-24T03:07:56.372Z,15.40
2018-05-24T03:10:24.084Z,15.40
2018-05-24T03:12:51.666Z,15.30
2018-05-24T03:15:19.187Z,15.30
2018-05-24T03:17:46.679Z,15.30
2018-05-24T03:20:14.194Z,15.40
2018-05-24T03:22:41.693Z,15.30
2018-05-24T03:25:09.282Z,15.30
2018-05-24T03:27:36.869Z,15.30
2018-05-24T03:30:04.462Z,15.30
2018-05-24T03:32:32.726Z,15.30
2018-05-24T03:35:00.344Z,15.30
2018-05-24T03:37:27.839Z,15.20
2018-05-24T03:39:56.148Z,15.40
2018-05-24T03:42:24.404Z,15.40
2018-05-24T03:44:51.915Z,15.40
2018-05-24T03:47:19.431Z,15.50
2018-05-24T03:49:46.946Z,15.50
2018-05-24T03:52:14.760Z,15.60
2018-05-24T03:54:43.011Z,15.60
2018-05-24T03:57:10.498Z,15.60
2018-05-24T04:02:53.374Z,15.70
2018-05-24T04:05:21.650Z,15.80
2018-05-24T04:07:49.143Z,15.80
2018-05-24T04:10:16.714Z,15.90
2018-05-24T04:12:44.214Z,15.90
2018-05-24T04:15:12.475Z,15.90
2018-05-24T04:17:39.987Z,15.90
2018-05-24T04:20:07.574Z,15.90
2018-05-24T04:22:35.094Z,15.90
2018-05-24T04:25:02.578Z,15.90
2018-05-24T04:27:30.113Z,16.00
2018-05-24T04:29:57.703Z,16.00
2018-05-24T04:32:25.219Z,16.00
2018-05-24T04:34:53.480Z,16.20
2018-05-24T04:37:20.998Z,16.20
2018-05-24T04:39:49.270Z,16.30
2018-05-24T04:42:18.308Z,16.30
2018-05-24T04:44:45.803Z,16.30
2018-05-24T04:47:14.084Z,16.20
2018-05-24T04:49:41.581Z,16.20
2018-05-24T04:52:09.932Z,16.20
2018-05-24T04:54:37.654Z,16.20
2018-05-24T04:57:05.233Z,16.10
2018-05-24T04:59:32.718Z,16.20
2018-05-24T05:02:01.854Z,16.10
2018-05-24T05:04:29.366Z,16.10
2018-05-24T05:06:56.890Z,16.20
2018-05-24T05:09:24.382Z,16.20
2018-05-24T05:11:51.890Z,16.10
2018-05-24T05:14:19.383Z,16.20
2018-05-24T05:16:47.662Z,16.20
2018-05-24T05:19:15.150Z,16.20
2018-05-24T05:21:42.669Z,16.20
2018-05-24T05:24:10.223Z,16.20
2018-05-24T05:26:37.751Z,16.20
2018-05-24T05:29:05.241Z,16.20
2018-05-24T05:31:32.761Z,16.20
2018-05-24T05:34:00.245Z,16.20
2018-05-24T05:36:27.766Z,16.30
2018-05-24T05:38:55.445Z,16.30
2018-05-24T05:41:22.990Z,16.40
2018-05-24T05:43:50.514Z,16.50
2018-05-24T05:46:18.767Z,16.60
2018-05-24T05:48:46.283Z,16.50
2018-05-24T05:51:13.855Z,16.60
2018-05-24T05:53:41.379Z,16.60
2018-05-24T05:56:09.654Z,16.70
2018-05-24T05:58:37.171Z,16.70
2018-05-24T06:01:04.674Z,16.60
2018-05-24T06:03:32.191Z,16.60
2018-05-24T06:05:59.809Z,16.60
2018-05-24T06:08:28.081Z,16.60
2018-05-24T06:10:55.676Z,16.60
2018-05-24T06:13:23.186Z,16.60
2018-05-24T06:15:51.439Z,16.60
2018-05-24T06:18:19.150Z,16.60
2018-05-24T06:20:46.641Z,16.60
2018-05-24T06:23:14.218Z,16.70
2018-05-24T06:25:41.714Z,16.70
2018-05-24T06:28:09.230Z,16.70
2018-05-24T06:30:36.778Z,16.70
2018-05-24T06:33:04.291Z,16.80
2018-05-24T06:35:32.562Z,16.90
2018-05-24T06:38:00.070Z,16.90
2018-05-24T06:40:28.368Z,17.00
2018-05-24T06:42:55.850Z,17.00
2018-05-24T06:45:24.143Z,17.30
2018-05-24T06:47:51.731Z,17.30
2018-05-24T06:50:19.231Z,17.50
2018-05-24T06:52:47.615Z,18.20
2018-05-24T06:55:15.203Z,18.20
2018-05-24T06:57:42.795Z,18.50
2018-05-24T07:00:10.374Z,18.60
2018-05-24T07:02:37.891Z,18.80
2018-05-24T07:05:06.148Z,18.80
2018-05-24T07:07:33.753Z,18.80
2018-05-24T07:10:02.014Z,18.90
2018-05-24T07:12:29.518Z,18.80
2018-05-24T07:14:57.049Z,19.00
2018-05-24T07:17:25.423Z,19.30
2018-05-24T07:19:53.013Z,19.20
2018-05-24T07:22:20.515Z,19.50
2018-05-24T07:24:48.030Z,19.70
2018-05-24T07:27:15.519Z,19.90
2018-05-24T07:29:43.055Z,20.00
2018-05-24T07:32:10.546Z,20.00
2018-05-24T07:34:38.254Z,19.90
2018-05-24T07:37:06.539Z,19.80
2018-05-24T07:39:34.134Z,19.70
2018-05-24T07:42:02.405Z,19.80
2018-05-24T07:44:29.932Z,19.80
2018-05-24T07:46:58.186Z,20.00
2018-05-24T07:49:25.706Z,20.00
2018-05-24T07:51:54.738Z,20.30
2018-05-24T07:54:22.251Z,20.30
2018-05-24T07:56:49.745Z,20.60
2018-05-24T07:59:17.254Z,20.80
2018-05-24T08:01:44.797Z,20.80
2018-05-24T08:04:12.277Z,20.60
2018-05-24T08:06:40.546Z,20.10
2018-05-24T08:09:08.145Z,20.00
2018-05-24T08:11:35.730Z,19.80
2018-05-24T08:14:03.252Z,19.80
2018-05-24T08:16:30.824Z,19.60
2018-05-24T08:18:59.185Z,19.70
2018-05-24T08:21:26.783Z,19.60
2018-05-24T08:23:54.507Z,20.10
2018-05-24T08:26:22.809Z,21.00
2018-05-24T08:28:51.195Z,20.80
2018-05-24T08:31:18.687Z,20.80
2018-05-24T08:33:46.198Z,20.40
2018-05-24T08:36:13.686Z,20.30
2018-05-24T08:38:41.203Z,20.30
2018-05-24T08:41:08.698Z,20.50
2018-05-24T08:43:36.294Z,21.00
2018-05-24T08:46:03.908Z,21.40
2018-05-24T08:48:32.217Z,22.00
2018-05-24T08:50:59.730Z,21.90
2018-05-24T08:53:27.372Z,22.30
2018-05-24T08:55:55.646Z,22.70
2018-05-24T08:58:23.244Z,22.70
2018-05-24T09:00:50.757Z,22.60
2018-05-24T09:03:19.027Z,22.60
2018-05-24T09:05:46.534Z,22.60
2018-05-24T09:08:14.109Z,22.50
2018-05-24T09:10:41.557Z,22.40
2018-05-24T09:13:09.050Z,22.40
2018-05-24T09:15:36.573Z,22.60
2018-05-24T09:18:04.826Z,22.70
2018-05-24T09:20:32.346Z,22.70
2018-05-24T09:22:59.925Z,22.70
2018-05-24T09:25:28.963Z,23.10
2018-05-24T09:27:56.461Z,23.10
2018-05-24T09:30:24.733Z,23.50
2018-05-24T09:32:52.226Z,23.50
2018-05-24T09:35:19.809Z,23.80
2018-05-24T09:37:48.803Z,24.00
2018-05-24T09:40:16.322Z,24.00
2018-05-24T09:42:43.824Z,24.10
2018-05-24T09:45:12.208Z,24.50
2018-05-24T09:47:39.791Z,24.50
2018-05-24T09:50:07.379Z,24.70
2018-05-24T09:52:34.887Z,25.10
2018-05-24T09:55:03.182Z,25.10
2018-05-24T09:57:31.496Z,25.00
2018-05-24T09:59:59.870Z,25.10
2018-05-24T10:02:27.491Z,25.10
2018-05-24T10:04:55.775Z,25.50
2018-05-24T10:07:23.266Z,25.50
2018-05-24T10:09:51.560Z,25.70
2018-05-24T10:12:19.046Z,25.70
2018-05-24T10:14:46.631Z,25.80
2018-05-24T10:17:14.134Z,26.00
2018-05-24T10:19:42.410Z,26.00
2018-05-24T10:22:10.026Z,25.90
2018-05-24T10:24:38.327Z,25.90
2018-05-24T10:27:06.587Z,26.10
2018-05-24T10:29:34.104Z,26.10
2018-05-24T10:32:02.432Z,26.70
2018-05-24T10:34:31.401Z,26.60
2018-05-24T10:36:59.031Z,26.50
2018-05-24T10:39:27.366Z,26.30
2018-05-24T10:41:55.602Z,26.60
2018-05-24T10:44:23.085Z,26.50
2018-05-24T10:46:50.619Z,27.50
2018-05-24T10:49:18.921Z,28.40
2018-05-24T10:51:47.192Z,28.60
2018-05-24T10:54:14.867Z,28.50
2018-05-24T10:56:42.373Z,28.50
2018-05-24T10:59:09.954Z,27.90
2018-05-24T11:01:37.458Z,27.60
2018-05-24T11:04:05.715Z,28.00
2018-05-24T11:06:33.330Z,28.00
2018-05-24T11:09:00.824Z,28.80
2018-05-24T11:11:28.396Z,29.80
2018-05-24T11:13:55.950Z,30.20
2018-05-24T11:16:23.490Z,30.00
2018-05-24T11:18:51.774Z,29.80
2018-05-24T11:21:19.385Z,29.80
2018-05-24T11:23:47.663Z,30.40
2018-05-24T11:26:15.958Z,30.50
2018-05-24T11:28:43.453Z,30.40
2018-05-24T11:31:11.055Z,31.30
2018-05-24T11:33:39.309Z,31.80
2018-05-24T11:36:06.826Z,31.70
2018-05-24T11:38:34.409Z,32.50
2018-05-24T11:41:02.054Z,32.80
2018-05-24T11:43:29.718Z,32.30
2018-05-24T11:45:57.090Z,32.90
2018-05-24T11:48:24.595Z,33.40
2018-05-24T11:50:52.110Z,32.70
2018-05-24T11:53:19.603Z,31.40
2018-05-24T11:55:47.112Z,30.60
2018-05-24T11:58:15.358Z,31.80
2018-05-24T12:00:42.978Z,31.70
2018-05-24T12:03:10.463Z,32.20
2018-05-24T12:05:37.983Z,32.20
2018-05-24T12:08:05.462Z,31.90
2018-05-24T12:10:33.083Z,31.50
2018-05-24T12:13:00.890Z,32.00
2018-05-24T12:15:28.482Z,33.20
2018-05-24T12:17:56.001Z,33.80
2018-05-24T12:20:23.660Z,33.20
2018-05-24T12:22:51.933Z,32.60
2018-05-24T12:25:19.461Z,32.50
2018-05-24T12:27:47.752Z,32.30
2018-05-24T12:30:16.002Z,32.80
2018-05-24T12:32:43.530Z,32.80
2018-05-24T12:35:11.832Z,33.10
2018-05-24T12:37:39.350Z,33.10
2018-05-24T12:40:06.843Z,34.10
2018-05-24T12:42:34.403Z,35.50
2018-05-24T12:45:02.678Z,35.70
2018-05-24T12:47:30.952Z,36.70
2018-05-24T12:49:58.438Z,36.70
2018-05-24T12:52:26.072Z,36.40
2018-05-24T12:54:54.322Z,32.80
2018-05-24T12:57:21.828Z,32.60
2018-05-24T12:59:49.315Z,31.70
2018-05-24T13:02:16.830Z,30.60
2018-05-24T13:04:44.407Z,30.70
2018-05-24T13:07:12.786Z,30.60
2018-05-24T13:09:41.789Z,31.10
2018-05-24T13:12:09.313Z,31.10
2018-05-24T13:14:37.574Z,30.90
2018-05-24T13:17:05.102Z,30.90
2018-05-24T13:19:32.595Z,30.80
2018-05-24T13:22:00.118Z,31.10
2018-05-24T13:24:27.749Z,31.80
2018-05-24T13:26:55.331Z,33.00
2018-05-24T13:29:23.582Z,34.80
2018-05-24T13:31:51.094Z,34.80
2018-05-24T13:34:18.669Z,35.90
2018-05-24T13:36:46.263Z,36.80
2018-05-24T13:39:15.284Z,39.40
2018-05-24T13:41:42.798Z,39.40
2018-05-24T13:44:10.376Z,40.10
2018-05-24T13:46:38.670Z,40.40
2018-05-24T13:49:06.945Z,39.70
2018-05-24T13:51:34.436Z,39.70
2018-05-24T13:54:02.152Z,38.30
2018-05-24T13:56:29.651Z,37.40
2018-05-24T13:58:57.182Z,37.40
2018-05-24T14:01:24.677Z,37.00
2018-05-24T14:03:52.954Z,35.10
2018-05-24T14:06:20.434Z,35.10
2018-05-24T14:08:47.963Z,34.80
2018-05-24T14:11:15.462Z,34.60
2018-05-24T14:13:42.974Z,33.90
2018-05-24T14:16:10.457Z,32.60
2018-05-24T14:18:37.965Z,32.20
2018-05-24T14:21:06.221Z,32.90
2018-05-24T14:23:33.873Z,32.90
2018-05-24T14:26:02.174Z,32.40
2018-05-24T14:28:30.453Z,32.00
2018-05-24T14:30:57.938Z,32.00
2018-05-24T14:33:25.519Z,31.70
2018-05-24T14:35:53.001Z,31.10
2018-05-24T14:38:20.522Z,31.00
2018-05-24T14:40:48.778Z,30.20
2018-05-24T14:43:16.381Z,30.10
2018-05-24T14:45:43.887Z,29.40
2018-05-24T14:48:12.163Z,28.50
2018-05-24T14:50:39.888Z,28.50
2018-05-24T14:53:07.398Z,28.40
2018-05-24T14:55:34.930Z,28.20
2018-05-24T14:58:03.226Z,27.60
2018-05-24T15:00:32.219Z,26.90
2018-05-24T15:02:59.747Z,26.90
2018-05-24T15:05:28.034Z,26.60
2018-05-24T15:07:55.553Z,26.60
2018-05-24T15:10:23.054Z,26.40
2018-05-24T15:12:50.600Z,26.30
2018-05-24T15:15:18.192Z,26.10
2018-05-24T15:17:45.978Z,25.80
2018-05-24T15:20:13.598Z,25.50
2018-05-24T15:22:41.143Z,25.30
2018-05-24T15:25:09.448Z,25.20
2018-05-24T15:27:37.708Z,25.00
2018-05-24T15:30:05.242Z,25.00
2018-05-24T15:32:32.731Z,25.00
2018-05-24T15:35:00.250Z,24.80
2018-05-24T15:37:27.758Z,24.80
2018-05-24T15:39:55.279Z,24.90
2018-05-24T15:42:22.848Z,24.90
2018-05-24T15:44:51.222Z,24.80
2018-05-24T15:47:18.795Z,24.80
2018-05-24T15:49:46.315Z,24.80
2018-05-24T15:52:13.805Z,24.90
2018-05-24T15:54:42.090Z,24.80
2018-05-24T15:57:09.582Z,24.80
2018-05-24T15:59:38.102Z,24.80
2018-05-24T16:02:05.594Z,24.80
2018-05-24T16:04:33.101Z,24.80
2018-05-24T16:07:00.591Z,24.80
2018-05-24T16:09:28.106Z,24.70
2018-05-24T16:11:55.594Z,24.80
2018-05-24T16:14:23.878Z,25.40
2018-05-24T16:16:51.368Z,25.40
2018-05-24T16:19:18.886Z,26.70
2018-05-24T16:21:46.378Z,28.20
2018-05-24T16:24:13.890Z,28.90
2018-05-24T16:26:41.507Z,29.80
2018-05-24T16:29:09.090Z,30.20
2018-05-24T16:31:36.598Z,30.60
2018-05-24T16:34:04.938Z,31.50
2018-05-24T16:36:32.458Z,31.50
2018-05-24T16:38:59.977Z,31.30
2018-05-24T16:41:27.462Z,31.30
2018-05-24T16:43:55.033Z,30.90
2018-05-24T16:46:23.294Z,29.60
2018-05-24T16:48:50.921Z,29.60
2018-05-24T16:51:19.195Z,28.40
2018-05-24T16:53:46.882Z,28.30
2018-05-24T16:56:14.387Z,28.20
2018-05-24T16:58:41.871Z,28.40
2018-05-24T17:01:10.146Z,29.30
2018-05-24T17:03:37.634Z,29.30
2018-05-24T17:06:05.245Z,29.30
2018-05-24T17:08:33.498Z,28.40
2018-05-24T17:11:01.006Z,28.30
2018-05-24T17:13:28.499Z,27.70
2018-05-24T17:15:56.782Z,27.10
2018-05-24T17:18:25.043Z,27.10
2018-05-24T17:20:52.597Z,27.00
2018-05-24T17:23:20.900Z,26.90
2018-05-24T17:25:48.485Z,26.90
2018-05-24T17:28:16.774Z,26.20
2018-05-24T17:30:44.267Z,26.10
2018-05-24T17:33:12.514Z,25.20
2018-05-24T17:35:40.032Z,25.20
2018-05-24T17:38:07.519Z,25.00
2018-05-24T17:40:35.031Z,24.80
2018-05-24T17:43:02.574Z,24.60
2018-05-24T17:45:30.163Z,24.40
2018-05-24T17:47:57.646Z,24.30
2018-05-24T17:50:25.227Z,24.10
2018-05-24T17:52:52.828Z,24.00
2018-05-24T17:55:21.123Z,23.80
2018-05-24T17:57:49.410Z,23.60
2018-05-24T18:00:17.010Z,23.60
2018-05-24T18:02:44.618Z,23.60
2018-05-24T18:05:12.154Z,23.60
2018-05-24T18:07:39.650Z,23.60
2018-05-24T18:10:07.249Z,23.80
2018-05-24T18:12:34.767Z,23.80
2018-05-24T18:15:02.424Z,23.70
2018-05-24T18:17:30.715Z,23.40
2018-05-24T18:19:58.294Z,23.30
2018-05-24T18:22:25.892Z,23.30
2018-05-24T18:24:54.189Z,23.20
2018-05-24T18:27:21.686Z,23.20
2018-05-24T18:29:49.971Z,23.10
2018-05-24T18:32:18.470Z,23.10
2018-05-24T18:34:45.993Z,23.20
2018-05-24T18:37:14.278Z,23.20
2018-05-24T18:39:41.897Z,23.20
2018-05-24T18:42:09.419Z,23.20
2018-05-24T18:44:37.037Z,23.20
2018-05-24T18:47:05.426Z,23.20
2018-05-24T18:49:32.939Z,23.10
2018-05-24T18:52:00.451Z,23.00
2018-05-24T18:54:27.978Z,22.90
2018-05-24T18:56:55.491Z,22.60
2018-05-24T18:59:22.970Z,22.50
2018-05-24T19:01:50.560Z,22.40
2018-05-24T19:04:18.922Z,22.20
2018-05-24T19:06:48.076Z,22.00
2018-05-24T19:09:16.347Z,22.00
2018-05-24T19:11:43.941Z,22.00
2018-05-24T19:14:11.448Z,21.90
2018-05-24T19:16:38.955Z,21.80
2018-05-24T19:19:06.641Z,21.80
2018-05-24T19:21:34.155Z,21.70
2018-05-24T19:24:01.650Z,21.70
2018-05-24T19:26:29.236Z,21.60
2018-05-24T19:28:57.491Z,21.40
2018-05-24T19:31:25.019Z,21.40
2018-05-24T19:33:53.274Z,21.30
2018-05-24T19:36:20.779Z,21.30
2018-05-24T19:38:48.291Z,21.30
2018-05-24T19:41:15.883Z,21.30
2018-05-24T19:43:43.380Z,21.20
2018-05-24T19:46:11.763Z,21.10
2018-05-24T19:48:39.252Z,21.00
2018-05-24T19:51:06.844Z,21.10
2018-05-24T19:53:34.334Z,21.00
2018-05-24T19:56:02.605Z,21.00
2018-05-24T19:58:30.106Z,20.90
2018-05-24T20:00:57.686Z,20.90
2018-05-24T20:03:25.276Z,20.90
2018-05-24T20:05:52.762Z,20.80
2018-05-24T20:08:20.342Z,20.80
2018-05-24T20:10:47.922Z,20.80
2018-05-24T20:13:15.433Z,20.50
2018-05-24T20:15:43.692Z,20.60
2018-05-24T20:18:11.199Z,20.60
2018-05-24T20:20:38.777Z,20.60
2018-05-24T20:23:06.317Z,20.50
2018-05-24T20:25:33.846Z,20.60
2018-05-24T20:28:01.354Z,20.50
2018-05-24T20:30:29.606Z,20.50
2018-05-24T20:32:57.138Z,20.50
2018-05-24T20:35:25.615Z,20.50
2018-05-24T20:37:53.130Z,20.40
2018-05-24T20:40:20.631Z,20.40
2018-05-24T20:42:48.144Z,20.30
2018-05-24T20:45:15.646Z,20.30
2018-05-24T20:47:43.266Z,20.20
2018-05-24T20:50:10.763Z,20.10
2018-05-24T20:52:38.317Z,20.00
2018-05-24T20:55:05.838Z,20.00
2018-05-24T20:57:33.360Z,19.90
2018-05-24T21:00:00.863Z,19.90
2018-05-24T21:02:28.382Z,20.00
2018-05-24T21:04:55.873Z,19.90
2018-05-24T21:07:23.442Z,19.90
2018-05-24T21:09:51.675Z,19.80
2018-05-24T21:12:19.203Z,19.80
2018-05-24T21:14:47.477Z,19.70
2018-05-24T21:17:15.009Z,19.70
2018-05-24T21:19:42.490Z,19.70
2018-05-24T21:22:10.034Z,19.60
2018-05-24T21:24:39.030Z,19.70
2018-05-24T21:27:06.548Z,19.80
2018-05-24T21:29:34.038Z,19.80
2018-05-24T21:32:02.322Z,19.80
2018-05-24T21:34:29.908Z,19.80
2018-05-24T21:36:57.412Z,19.90
2018-05-24T21:39:25.657Z,20.10
2018-05-24T21:41:53.170Z,20.10
2018-05-24T21:44:20.659Z,20.20
2018-05-24T21:46:48.169Z,20.10
2018-05-24T21:49:16.574Z,20.00
2018-05-24T21:51:44.829Z,20.00
2018-05-24T21:54:12.430Z,19.90
2018-05-24T21:56:39.919Z,20.00
2018-05-24T21:59:07.439Z,20.00
2018-05-24T22:01:34.934Z,20.10
2018-05-24T22:04:02.581Z,20.10
2018-05-24T22:06:30.866Z,20.00
2018-05-24T22:08:58.461Z,20.00
2018-05-24T22:11:25.963Z,19.90
2018-05-24T22:13:53.481Z,19.90
2018-05-24T22:16:21.010Z,19.90
2018-05-24T22:18:48.503Z,19.90
2018-05-24T22:21:16.787Z,19.80
2018-05-24T22:23:44.303Z,19.80
2018-05-24T22:26:12.554Z,19.70
2018-05-24T22:28:40.074Z,19.70
2018-05-24T22:31:08.337Z,19.50
2018-05-24T22:33:35.852Z,19.50
2018-05-24T22:36:03.344Z,19.50
2018-05-24T22:38:31.638Z,19.20
2018-05-24T22:40:59.956Z,19.20
2018-05-24T22:43:28.235Z,19.30
2018-05-24T22:45:55.730Z,19.20
2018-05-24T22:48:24.019Z,19.10
2018-05-24T22:50:51.515Z,19.10
2018-05-24T22:53:19.790Z,19.10
2018-05-24T22:55:47.278Z,19.10
2018-05-24T22:58:14.869Z,19.10
2018-05-24T23:00:42.357Z,19.10
2018-05-24T23:03:09.949Z,19.00
2018-05-24T23:05:37.383Z,19.00
2018-05-24T23:08:04.902Z,18.90
2018-05-24T23:10:32.442Z,18.90
2018-05-24T23:12:59.957Z,18.80
2018-05-24T23:15:27.576Z,18.70
2018-05-24T23:17:55.881Z,18.60
2018-05-24T23:20:24.254Z,18.60
2018-05-24T23:22:51.747Z,18.60
2018-05-24T23:25:19.327Z,18.60
2018-05-24T23:27:46.936Z,18.70
2018-05-24T23:30:15.315Z,18.50
2018-05-24T23:32:42.799Z,18.60
2018-05-24T23:35:10.344Z,18.50
2018-05-24T23:37:37.897Z,18.40
2018-05-24T23:40:05.425Z,18.40
2018-05-24T23:42:32.957Z,18.50
2018-05-24T23:45:01.247Z,18.50
2018-05-24T23:47:29.514Z,18.50
2018-05-24T23:49:57.248Z,18.50
2018-05-24T23:52:25.629Z,18.50
2018-05-24T23:54:53.167Z,18.50
2018-05-24T23:57:20.665Z,18.50
2018-05-24T23:59:48.282Z,18.50
